Terminal Aerodrome Forecast
Issued by NWS

Home | Current Version | Previous Version | Graphics & Text | Print | Product List | Glossary On
Versions: 1 2 3 4 5 6 7 8 9 10 11 12 13 14
000
FTUS43 KFGF 130500
TAFBJI
TAF
KBJI 130520Z 1306/1406 VRB06KT P6SM OVC008
     FM130800 33014KT P6SM OVC006
     FM131500 34017G27KT P6SM OVC010=

USA.gov is the U.S. government's official web portal to all federal, state and local government web resources and services.